createdAt,value
2023-05-16T00:02:18.749Z,10.65
2023-05-16T00:04:46.200Z,10.32
2023-05-16T00:07:12.716Z,9.30
2023-05-16T00:09:39.632Z,9.35
2023-05-16T00:12:06.503Z,9.00
2023-05-16T00:14:33.137Z,8.90
2023-05-16T00:16:59.726Z,9.45
2023-05-16T00:19:27.641Z,10.43
2023-05-16T00:21:54.147Z,9.93
2023-05-16T00:24:20.660Z,10.95
2023-05-16T00:26:47.212Z,10.25
2023-05-16T00:29:14.676Z,11.75
2023-05-16T00:31:41.230Z,13.70
2023-05-16T00:34:07.827Z,10.70
2023-05-16T00:36:35.836Z,11.23
2023-05-16T00:39:02.437Z,12.23
2023-05-16T00:41:29.087Z,12.23
2023-05-16T00:43:55.598Z,12.57
2023-05-16T00:46:22.115Z,14.27
2023-05-16T00:48:48.667Z,13.18
2023-05-16T00:51:15.701Z,13.60
2023-05-16T00:53:42.357Z,14.30
2023-05-16T00:56:09.260Z,14.40
2023-05-16T00:58:36.981Z,14.88
2023-05-16T01:01:06.462Z,14.95
2023-05-16T01:03:33.328Z,16.50
2023-05-16T01:06:00.380Z,15.82
2023-05-16T01:08:27.046Z,15.82
2023-05-16T01:11:20.916Z,15.57
2023-05-16T01:13:58.672Z,16.40
2023-05-16T01:16:47.125Z,19.15
2023-05-16T01:19:33.168Z,18.33
2023-05-16T01:22:05.696Z,16.85
2023-05-16T01:24:44.751Z,15.75
2023-05-16T01:27:12.136Z,15.15
2023-05-16T01:29:38.645Z,16.33
2023-05-16T01:32:05.477Z,18.35
2023-05-16T01:34:32.123Z,16.35
2023-05-16T01:37:19.966Z,17.15
2023-05-16T01:40:00.082Z,15.55
2023-05-16T01:42:29.164Z,15.48
2023-05-16T01:45:27.545Z,18.25
2023-05-16T01:48:13.783Z,15.55
2023-05-16T01:50:45.506Z,14.32
2023-05-16T01:53:16.154Z,15.45
2023-05-16T01:55:48.910Z,16.50
2023-05-16T01:58:18.701Z,15.05
2023-05-16T02:00:45.311Z,14.15
2023-05-16T02:03:11.994Z,14.80
2023-05-16T02:05:38.702Z,15.60
2023-05-16T02:08:05.707Z,14.70
2023-05-16T02:10:32.900Z,16.42
2023-05-16T02:12:59.689Z,15.70
2023-05-16T02:15:26.581Z,15.68
2023-05-16T02:17:53.499Z,17.27
2023-05-16T02:20:20.185Z,13.57
2023-05-16T02:22:47.517Z,13.95
2023-05-16T02:25:15.014Z,15.75
2023-05-16T02:27:42.956Z,16.63
2023-05-16T02:30:11.853Z,15.93
2023-05-16T02:32:39.485Z,13.80
2023-05-16T02:35:06.166Z,14.50
2023-05-16T02:37:32.654Z,14.55
2023-05-16T02:39:59.157Z,14.13
2023-05-16T02:42:27.677Z,14.90
2023-05-16T02:44:54.181Z,13.32
2023-05-16T02:47:20.776Z,14.63
2023-05-16T02:49:47.332Z,14.95
2023-05-16T02:52:13.877Z,15.15
2023-05-16T02:54:40.572Z,15.35
2023-05-16T02:57:07.122Z,16.92
2023-05-16T02:59:33.643Z,16.63
2023-05-16T03:02:00.330Z,17.00
2023-05-16T03:04:26.862Z,15.63
2023-05-16T03:06:54.008Z,15.60
2023-05-16T03:09:20.704Z,15.05
2023-05-16T03:11:47.379Z,15.07
2023-05-16T03:14:13.946Z,15.93
2023-05-16T03:16:43.429Z,19.17
2023-05-16T03:19:10.809Z,18.42
2023-05-16T03:21:37.337Z,17.38
2023-05-16T03:24:04.211Z,17.17
2023-05-16T03:26:30.784Z,16.92
2023-05-16T03:28:57.379Z,17.27
2023-05-16T03:31:23.969Z,17.17
2023-05-16T03:33:50.814Z,18.13
2023-05-16T03:36:17.439Z,16.92
2023-05-16T03:38:43.970Z,17.77
2023-05-16T03:41:10.842Z,17.55
2023-05-16T03:43:37.453Z,18.00
2023-05-16T03:46:04.168Z,18.05
2023-05-16T03:48:30.958Z,18.88
2023-05-16T03:50:57.507Z,18.35
2023-05-16T03:53:24.012Z,17.85
2023-05-16T03:55:50.591Z,18.27
2023-05-16T03:58:17.116Z,20.88
2023-05-16T04:00:43.707Z,18.55
2023-05-16T04:03:11.448Z,21.20
2023-05-16T04:05:38.039Z,21.27
2023-05-16T04:08:04.739Z,20.27
2023-05-16T04:10:31.266Z,18.83
2023-05-16T04:12:57.785Z,18.80
2023-05-16T04:15:24.324Z,18.55
2023-05-16T04:17:50.956Z,30.52
2023-05-16T04:20:17.525Z,22.50
2023-05-16T04:22:44.052Z,20.50
2023-05-16T04:25:11.312Z,21.08
2023-05-16T04:27:38.546Z,19.50
2023-05-16T04:30:05.531Z,18.00
2023-05-16T04:32:35.333Z,18.83
2023-05-16T04:35:02.133Z,17.90
2023-05-16T04:37:28.628Z,20.17
2023-05-16T04:39:55.137Z,19.08
2023-05-16T04:42:21.759Z,19.25
2023-05-16T04:44:48.504Z,18.08
2023-05-16T04:47:15.106Z,19.95
2023-05-16T04:49:41.674Z,18.52
2023-05-16T04:52:11.192Z,18.35
2023-05-16T04:54:40.519Z,19.40
2023-05-16T04:57:07.014Z,20.80
2023-05-16T04:59:33.663Z,18.73
2023-05-16T05:02:00.285Z,19.42
2023-05-16T05:04:26.959Z,17.90
2023-05-16T05:06:53.500Z,19.48
2023-05-16T05:09:20.020Z,19.33
2023-05-16T05:11:46.612Z,18.77
2023-05-16T05:14:13.165Z,19.10
2023-05-16T05:16:39.832Z,18.38
2023-05-16T05:19:06.689Z,20.60
2023-05-16T05:21:33.248Z,19.50
2023-05-16T05:23:59.736Z,27.63
2023-05-16T05:26:26.365Z,19.75
2023-05-16T05:29:04.646Z,20.00
2023-05-16T05:31:35.150Z,18.50
2023-05-16T05:34:02.767Z,19.33
2023-05-16T05:36:29.589Z,18.38
2023-05-16T05:38:56.200Z,19.27
2023-05-16T05:41:22.801Z,17.83
2023-05-16T05:43:49.548Z,21.75
2023-05-16T05:46:17.273Z,17.65
2023-05-16T05:48:44.546Z,20.27
2023-05-16T05:51:11.247Z,20.63
2023-05-16T05:53:37.769Z,18.05
2023-05-16T05:56:04.374Z,18.80
2023-05-16T05:58:30.963Z,17.80
2023-05-16T06:00:57.499Z,16.77
2023-05-16T06:03:24.210Z,17.75
2023-05-16T06:05:50.898Z,15.60
2023-05-16T06:08:17.464Z,15.35
2023-05-16T06:10:43.967Z,14.30
2023-05-16T06:13:10.594Z,17.20
2023-05-16T06:15:37.474Z,14.30
2023-05-16T06:18:04.108Z,17.35
2023-05-16T06:20:30.644Z,15.68
2023-05-16T06:22:57.339Z,13.45
2023-05-16T06:25:23.879Z,12.52
2023-05-16T06:27:51.414Z,11.90
2023-05-16T06:30:17.970Z,13.27
2023-05-16T06:32:44.640Z,15.32
2023-05-16T06:35:11.370Z,12.43
2023-05-16T06:37:37.867Z,11.23
2023-05-16T06:40:05.465Z,12.23
2023-05-16T06:42:32.030Z,9.80
2023-05-16T06:44:59.139Z,10.32
2023-05-16T06:47:26.014Z,13.88
2023-05-16T06:49:52.753Z,12.52
2023-05-16T06:52:19.565Z,11.55
2023-05-16T06:54:46.081Z,11.80
2023-05-16T06:57:13.423Z,14.57
2023-05-16T06:59:40.052Z,11.45
2023-05-16T07:02:06.931Z,8.45
2023-05-16T07:04:34.457Z,8.13
2023-05-16T07:07:01.112Z,10.13
2023-05-16T07:09:27.729Z,8.00
